Time;durP1;ratioP1;P1;durP2;ratioP2;P2;SDS_P1;SDS_P2;PMS_P1;PMS_P2;Temp;Humidity;BMP_temperature;BMP_pressure;BME280_temperature;BME280_humidity;BME280_pressure;Samples;Min_cycle;Max_cycle;Signal;HPM_P1;HPM_P2
2022/11/25 00:01:10;;;;;;;1.20;0.77;;;22.40;44.90;;;;;;5073093;28;20191;-54
2022/11/25 00:03:42;;;;;;;2.03;0.90;;;22.40;44.90;;;;;;5072153;28;20240;-49
2022/11/25 00:06:18;;;;;;;1.73;0.73;;;22.40;44.90;;;;;;5072375;28;20195;-52
2022/11/25 00:08:50;;;;;;;1.80;0.98;;;22.40;44.90;;;;;;5072963;28;20235;-57
2022/11/25 00:11:21;;;;;;;2.38;0.85;;;22.40;44.90;;;;;;5072518;28;20431;-63
2022/11/25 00:13:52;;;;;;;1.75;1.02;;;22.50;45.00;;;;;;5072151;28;20226;-61
2022/11/25 00:16:26;;;;;;;3.30;0.95;;;22.50;45.00;;;;;;5072949;28;20194;-50
2022/11/25 00:18:58;;;;;;;2.25;0.88;;;22.50;45.50;;;;;;5072074;28;20190;-61
2022/11/25 00:21:32;;;;;;;1.58;0.60;;;22.50;44.80;;;;;;5072384;28;20191;-56
2022/11/25 00:24:04;;;;;;;1.65;0.80;;;22.60;44.80;;;;;;5070529;28;20237;-49
2022/11/25 00:26:36;;;;;;;1.23;0.77;;;22.60;44.80;;;;;;5076987;28;20198;-48
2022/11/25 00:29:08;;;;;;;3.10;0.95;;;22.60;44.80;;;;;;5091089;28;20658;-49
2022/11/25 00:31:42;;;;;;;0.98;0.70;;;22.60;44.80;;;;;;5072593;28;20567;-54
2022/11/25 00:34:15;;;;;;;2.03;0.93;;;22.60;44.80;;;;;;5072120;28;20230;-53
2022/11/25 00:36:47;;;;;;;2.53;1.00;;;22.70;44.80;;;;;;5071899;28;20202;-53
2022/11/25 00:39:23;;;;;;;1.90;0.90;;;22.70;44.80;;;;;;5071735;28;20199;-62
2022/11/25 00:44:40;;;;;;;1.65;1.05;;;22.70;44.70;;;;;;5091935;28;20229;-55
2022/11/25 00:47:14;;;;;;;1.27;0.82;;;22.80;44.70;;;;;;5072286;28;20205;-50
2022/11/25 00:49:47;;;;;;;3.22;0.98;;;22.70;44.60;;;;;;5071755;28;20198;-51
2022/11/25 00:52:19;;;;;;;1.98;0.70;;;22.80;44.60;;;;;;5089105;28;20272;-49
2022/11/25 00:54:51;;;;;;;1.40;0.80;;;22.80;44.60;;;;;;5092006;28;20218;-61
2022/11/25 00:57:23;;;;;;;2.33;0.93;;;22.80;44.60;;;;;;5090921;28;20183;-58
2022/11/25 00:59:54;;;;;;;2.47;0.80;;;22.80;44.60;;;;;;5082371;28;20203;-54
2022/11/25 01:02:27;;;;;;;0.85;0.60;;;22.90;44.50;;;;;;5072577;28;20199;-56
2022/11/25 01:04:57;;;;;;;2.03;0.75;;;22.90;44.40;;;;;;5071981;28;20694;-49
2022/11/25 01:07:28;;;;;;;1.38;0.70;;;22.90;44.30;;;;;;5071541;28;20217;-54
2022/11/25 01:09:59;;;;;;;1.95;0.70;;;22.90;44.20;;;;;;5071714;28;20195;-50
2022/11/25 01:12:30;;;;;;;2.97;1.00;;;22.90;44.10;;;;;;5071540;28;20202;-58
2022/11/25 01:15:01;;;;;;;1.65;0.52;;;22.90;44.10;;;;;;5071581;28;20194;-58
2022/11/25 01:17:33;;;;;;;2.40;0.57;;;22.90;44.10;;;;;;5071907;28;20213;-59
2022/11/25 01:20:04;;;;;;;0.52;0.50;;;22.90;44.00;;;;;;5072031;28;20191;-56
2022/11/25 01:22:35;;;;;;;2.10;0.40;;;22.90;44.00;;;;;;5071290;28;20202;-52
2022/11/25 01:25:06;;;;;;;1.20;0.65;;;23.00;44.00;;;;;;5060313;28;20587;-52
2022/11/25 01:27:41;;;;;;;1.27;0.40;;;23.00;44.00;;;;;;5051149;28;20202;-54
2022/11/25 01:30:13;;;;;;;1.42;0.50;;;23.00;44.10;;;;;;5071070;28;20194;-58
2022/11/25 01:32:46;;;;;;;1.00;0.47;;;23.00;44.10;;;;;;5070682;28;20209;-61
2022/11/25 01:35:16;;;;;;;1.00;0.50;;;23.00;44.10;;;;;;5071024;28;20187;-60
2022/11/25 01:37:47;;;;;;;1.65;0.52;;;23.00;44.00;;;;;;5070141;28;20197;-59
2022/11/25 01:40:19;;;;;;;1.17;0.43;;;23.10;44.10;;;;;;5070599;28;20575;-54
2022/11/25 01:42:50;;;;;;;1.10;0.40;;;23.10;43.90;;;;;;5071025;28;20198;-58
2022/11/25 01:45:36;;;;;;;2.45;0.50;;;23.10;43.90;;;;;;5070129;28;20584;-62
2022/11/25 01:48:16;;;;;;;1.27;0.60;;;23.10;43.70;;;;;;5070791;28;20539;-61
2022/11/25 01:50:51;;;;;;;0.85;0.30;;;23.10;43.50;;;;;;5070704;28;20198;-61
2022/11/25 01:53:22;;;;;;;0.90;0.40;;;23.20;43.50;;;;;;5070611;28;20214;-59
2022/11/25 01:55:57;;;;;;;0.70;0.50;;;23.20;43.30;;;;;;5070648;28;20202;-61
2022/11/25 01:58:31;;;;;;;1.98;0.45;;;23.20;43.20;;;;;;5070621;28;20542;-61
2022/11/25 02:01:02;;;;;;;1.27;0.50;;;23.20;43.20;;;;;;5068785;28;20203;-62
2022/11/25 02:03:37;;;;;;;1.17;0.40;;;23.20;43.00;;;;;;5057942;28;20706;-61
2022/11/25 02:06:13;;;;;;;0.93;0.32;;;23.20;43.20;;;;;;5050790;28;20227;-63
2022/11/25 02:08:45;;;;;;;0.73;0.40;;;23.30;43.30;;;;;;5051979;28;20281;-63
2022/11/25 02:11:18;;;;;;;0.60;0.30;;;23.30;43.20;;;;;;5071088;28;20205;-63
2022/11/25 02:13:51;;;;;;;0.82;0.32;;;23.30;43.20;;;;;;5071185;28;20219;-57
2022/11/25 02:16:22;;;;;;;1.65;0.40;;;23.30;43.20;;;;;;5071467;28;20213;-56
2022/11/25 02:18:55;;;;;;;1.10;0.40;;;23.30;43.10;;;;;;5071024;28;20202;-57
2022/11/25 02:21:38;;;;;;;1.10;0.40;;;23.40;42.90;;;;;;5070556;28;20198;-57
2022/11/25 02:24:16;;;;;;;0.90;0.30;;;23.40;42.90;;;;;;5067359;28;20203;-58
2022/11/25 02:26:49;;;;;;;1.52;0.20;;;23.40;42.80;;;;;;5050849;28;20199;-62
2022/11/25 02:29:20;;;;;;;0.98;0.30;;;23.40;42.60;;;;;;5055077;28;20249;-63
2022/11/25 02:31:52;;;;;;;1.25;0.30;;;23.40;42.60;;;;;;5071113;28;20199;-56
2022/11/25 02:34:23;;;;;;;0.70;0.40;;;23.50;42.50;;;;;;5069791;28;20211;-54
2022/11/25 02:36:55;;;;;;;0.70;0.45;;;23.50;42.40;;;;;;5070016;28;20199;-57
2022/11/25 02:39:26;;;;;;;1.05;0.40;;;23.50;42.20;;;;;;5070247;28;20190;-56
2022/11/25 02:42:01;;;;;;;1.13;0.40;;;23.50;42.30;;;;;;5070368;28;20203;-59
2022/11/25 02:44:31;;;;;;;0.30;0.20;;;23.50;42.40;;;;;;5070800;28;20213;-58
2022/11/25 02:47:02;;;;;;;0.57;0.20;;;23.50;42.30;;;;;;5070195;28;20538;-61
2022/11/25 02:49:33;;;;;;;1.70;0.22;;;23.50;42.70;;;;;;5070334;28;20689;-55
2022/11/25 02:52:04;;;;;;;1.20;0.43;;;23.50;42.00;;;;;;5069472;28;20202;-59
2022/11/25 02:54:34;;;;;;;0.45;0.28;;;23.50;41.80;;;;;;5070910;28;20222;-54
2022/11/25 02:57:07;;;;;;;0.57;0.30;;;23.50;41.90;;;;;;5070522;28;20206;-56
2022/11/25 02:59:38;;;;;;;1.27;0.40;;;23.60;42.00;;;;;;5070246;28;20198;-58
2022/11/25 03:02:08;;;;;;;2.97;0.30;;;23.60;41.80;;;;;;5070545;28;20202;-56
2022/11/25 03:04:39;;;;;;;1.95;0.50;;;23.60;41.50;;;;;;5064194;28;20218;-53
2022/11/25 03:07:10;;;;;;;0.50;0.25;;;23.60;41.30;;;;;;5070014;28;20202;-54
2022/11/25 03:09:42;;;;;;;0.93;0.30;;;23.60;41.30;;;;;;5070457;28;20183;-54
2022/11/25 03:12:20;;;;;;;0.82;0.30;;;23.60;41.20;;;;;;5069998;28;20733;-62
2022/11/25 03:14:51;;;;;;;0.98;0.40;;;23.60;41.00;;;;;;5070588;28;20211;-54
2022/11/25 03:17:22;;;;;;;0.52;0.40;;;23.60;41.00;;;;;;5071176;28;20203;-50
2022/11/25 03:19:52;;;;;;;0.20;0.20;;;23.60;41.00;;;;;;5070267;28;20187;-51
2022/11/25 03:22:24;;;;;;;0.65;0.35;;;23.60;41.10;;;;;;5073286;28;20206;-48
2022/11/25 03:24:55;;;;;;;0.60;0.30;;;23.60;41.10;;;;;;5070251;28;20241;-63
2022/11/25 03:27:28;;;;;;;0.35;0.30;;;23.60;41.20;;;;;;5073519;28;20650;-65
2022/11/25 03:29:59;;;;;;;0.47;0.30;;;23.60;41.20;;;;;;5073062;28;20191;-59
2022/11/25 03:32:29;;;;;;;0.52;0.20;;;23.60;41.30;;;;;;5072761;28;20199;-53
2022/11/25 03:35:00;;;;;;;1.10;0.40;;;23.60;41.30;;;;;;5072865;28;20655;-62
2022/11/25 03:37:31;;;;;;;0.88;0.50;;;23.60;41.20;;;;;;5073856;28;20202;-57
2022/11/25 03:40:02;;;;;;;1.58;0.40;;;23.60;41.20;;;;;;5072865;28;20187;-52
2022/11/25 03:42:35;;;;;;;1.30;0.38;;;23.60;41.20;;;;;;5072964;28;20190;-58
2022/11/25 03:45:07;;;;;;;1.63;0.50;;;23.60;41.30;;;;;;5073092;28;20701;-56
2022/11/25 03:47:37;;;;;;;2.13;0.50;;;23.60;41.40;;;;;;5072714;28;20199;-53
2022/11/25 03:50:09;;;;;;;0.65;0.38;;;23.60;41.20;;;;;;5073735;28;20428;-52
2022/11/25 03:52:40;;;;;;;0.85;0.38;;;23.60;41.30;;;;;;5072975;28;20450;-54
2022/11/25 03:55:12;;;;;;;1.13;0.30;;;23.50;41.30;;;;;;5073925;28;20210;-61
2022/11/25 03:57:48;;;;;;;0.98;0.50;;;23.50;41.30;;;;;;5072737;28;20187;-57
2022/11/25 04:00:22;;;;;;;0.95;0.40;;;23.50;41.30;;;;;;5073434;28;20202;-52
2022/11/25 04:02:53;;;;;;;1.17;0.50;;;23.50;41.30;;;;;;5072683;28;20223;-59
2022/11/25 04:05:24;;;;;;;1.67;0.40;;;23.50;41.30;;;;;;5073643;28;20225;-52
2022/11/25 04:07:55;;;;;;;1.27;0.38;;;23.50;41.30;;;;;;5073740;28;20211;-53
2022/11/25 04:10:25;;;;;;;3.88;0.47;;;23.50;41.40;;;;;;5073726;28;20198;-61
2022/11/25 04:12:56;;;;;;;1.05;0.43;;;23.50;41.40;;;;;;5073647;28;20233;-66
2022/11/25 04:15:27;;;;;;;0.93;0.47;;;23.50;41.50;;;;;;5073654;28;20281;-59
2022/11/25 04:17:58;;;;;;;1.08;0.38;;;23.50;41.50;;;;;;5072446;28;20210;-49
2022/11/25 04:20:29;;;;;;;2.42;0.70;;;23.60;41.60;;;;;;5073223;28;20690;-65
2022/11/25 04:23:00;;;;;;;2.22;0.32;;;23.60;41.50;;;;;;5072978;28;20215;-49
2022/11/25 04:25:31;;;;;;;1.75;0.60;;;23.60;41.50;;;;;;5072873;28;20233;-55
2022/11/25 04:28:03;;;;;;;2.20;0.80;;;23.60;41.50;;;;;;5072215;28;20194;-60
2022/11/25 04:30:34;;;;;;;0.60;0.40;;;23.60;41.40;;;;;;5072797;28;20203;-57
2022/11/25 04:33:05;;;;;;;1.85;0.50;;;23.50;41.30;;;;;;5072591;28;20657;-56
2022/11/25 04:35:36;;;;;;;1.73;0.70;;;23.50;41.30;;;;;;5073139;28;20191;-58
2022/11/25 04:38:07;;;;;;;2.33;0.50;;;23.50;41.30;;;;;;5073156;28;20632;-48
2022/11/25 04:40:38;;;;;;;1.85;0.50;;;23.50;41.20;;;;;;5072718;28;20191;-57
2022/11/25 04:43:11;;;;;;;2.22;0.70;;;23.60;41.20;;;;;;5072971;28;20218;-49
2022/11/25 04:45:41;;;;;;;0.70;0.60;;;23.60;41.20;;;;;;5072988;28;20226;-50
2022/11/25 04:48:12;;;;;;;1.80;0.43;;;23.60;41.30;;;;;;5072626;28;20198;-54
2022/11/25 04:50:43;;;;;;;1.60;0.50;;;23.60;41.30;;;;;;5072670;28;20542;-51
2022/11/25 04:53:14;;;;;;;2.15;0.70;;;23.60;41.30;;;;;;5072114;28;20210;-49
2022/11/25 04:55:47;;;;;;;2.65;0.50;;;23.60;41.30;;;;;;5072540;28;20673;-50
2022/11/25 04:59:38;;;;;;;0.82;0.50;;;23.70;41.20;;;;;;5072783;28;20230;-49
2022/11/25 05:01:09;;;;;;;1.02;0.60;;;23.70;41.20;;;;;;5072341;28;20209;-47
2022/11/25 05:03:39;;;;;;;0.95;0.40;;;23.70;41.10;;;;;;5072263;28;20223;-50
2022/11/25 05:06:11;;;;;;;1.02;0.30;;;23.70;41.10;;;;;;5072774;28;20234;-52
2022/11/25 05:08:41;;;;;;;0.95;0.43;;;23.60;41.00;;;;;;5072141;28;20195;-48
2022/11/25 05:11:12;;;;;;;1.25;0.30;;;23.70;41.10;;;;;;5072309;28;20209;-51
2022/11/25 05:13:48;;;;;;;1.65;0.40;;;23.70;41.10;;;;;;5071875;28;20211;-49
2022/11/25 05:16:19;;;;;;;1.70;0.50;;;23.70;41.10;;;;;;5072111;28;20225;-49
2022/11/25 05:18:50;;;;;;;1.35;0.57;;;23.70;41.10;;;;;;5071724;28;20647;-57
2022/11/25 05:21:20;;;;;;;3.03;0.63;;;23.70;41.10;;;;;;5071979;28;20201;-49
2022/11/25 05:23:51;;;;;;;0.95;0.40;;;23.70;41.20;;;;;;5071898;28;20214;-56
2022/11/25 05:26:22;;;;;;;1.95;0.47;;;23.70;41.30;;;;;;5071673;28;20237;-57
2022/11/25 05:28:58;;;;;;;1.50;0.40;;;23.70;41.20;;;;;;5071872;28;20219;-57
2022/11/25 05:31:29;;;;;;;1.58;0.43;;;23.70;41.20;;;;;;5071643;28;20199;-60
2022/11/25 05:34:01;;;;;;;1.92;0.77;;;23.70;41.10;;;;;;5071616;28;20218;-52
2022/11/25 05:36:32;;;;;;;0.45;0.30;;;23.70;41.10;;;;;;5071475;28;20217;-55
2022/11/25 05:39:03;;;;;;;0.52;0.30;;;23.70;41.10;;;;;;5071763;28;20206;-53
2022/11/25 05:41:34;;;;;;;1.08;0.50;;;23.70;41.10;;;;;;5071180;28;20189;-57
2022/11/25 05:44:06;;;;;;;1.80;0.40;;;23.70;41.10;;;;;;5070785;28;20214;-55
2022/11/25 05:46:38;;;;;;;1.85;0.52;;;23.70;41.10;;;;;;5070906;28;20222;-60
2022/11/25 05:49:08;;;;;;;0.82;0.43;;;23.70;41.10;;;;;;5071179;28;20199;-56
2022/11/25 05:51:39;;;;;;;0.38;0.30;;;23.70;41.20;;;;;;5070955;28;20194;-54
2022/11/25 05:54:10;;;;;;;1.65;0.35;;;23.80;41.20;;;;;;5071189;28;20218;-53
2022/11/25 05:56:40;;;;;;;0.60;0.40;;;23.70;41.10;;;;;;5071105;28;20233;-54
2022/11/25 05:59:13;;;;;;;2.55;0.70;;;23.70;41.10;;;;;;5070851;28;20199;-55
2022/11/25 06:01:44;;;;;;;1.33;0.68;;;23.70;41.10;;;;;;5070959;28;20194;-57
2022/11/25 06:04:15;;;;;;;2.35;0.63;;;23.70;41.20;;;;;;5071241;28;20223;-57
2022/11/25 06:06:46;;;;;;;0.88;0.38;;;23.70;41.20;;;;;;5071481;28;20633;-53
2022/11/25 06:09:16;;;;;;;1.20;0.40;;;23.70;41.20;;;;;;5071104;28;20191;-59
2022/11/25 06:11:50;;;;;;;1.98;0.60;;;23.70;41.20;;;;;;5070958;28;20195;-54
2022/11/25 06:14:22;;;;;;;1.23;0.40;;;23.70;41.20;;;;;;5070804;28;20219;-50
2022/11/25 06:16:53;;;;;;;0.80;0.40;;;23.70;41.30;;;;;;5071559;28;20202;-65
2022/11/25 06:19:24;;;;;;;1.80;0.30;;;23.70;41.30;;;;;;5071048;28;20195;-62
2022/11/25 06:21:55;;;;;;;0.93;0.32;;;23.70;41.40;;;;;;5070635;28;20285;-63
2022/11/25 06:24:26;;;;;;;2.08;0.40;;;23.70;41.40;;;;;;5070801;28;20678;-62
2022/11/25 06:26:56;;;;;;;1.65;0.52;;;23.70;41.40;;;;;;5071422;28;20225;-62
2022/11/25 06:29:29;;;;;;;0.70;0.50;;;23.80;41.50;;;;;;5071222;28;20206;-60
2022/11/25 06:32:00;;;;;;;2.58;0.65;;;23.80;41.50;;;;;;5071020;28;20538;-62
2022/11/25 06:34:30;;;;;;;0.73;0.43;;;23.80;41.60;;;;;;5070683;28;20217;-62
2022/11/25 06:37:01;;;;;;;0.57;0.38;;;23.80;41.60;;;;;;5071069;28;20198;-59
2022/11/25 06:39:32;;;;;;;0.47;0.30;;;23.80;41.60;;;;;;5071099;28;20201;-60
2022/11/25 06:42:03;;;;;;;1.85;0.40;;;23.80;41.60;;;;;;5070751;28;20197;-61
2022/11/25 06:44:35;;;;;;;0.52;0.38;;;23.80;41.50;;;;;;5070604;28;20223;-59
2022/11/25 06:47:06;;;;;;;0.85;0.30;;;23.80;41.60;;;;;;5070636;28;20222;-57
2022/11/25 06:49:37;;;;;;;0.30;0.28;;;23.80;41.50;;;;;;5070436;28;20201;-61
2022/11/25 06:52:07;;;;;;;1.02;0.50;;;23.80;41.60;;;;;;5070148;28;20194;-63
2022/11/25 06:54:40;;;;;;;1.02;0.50;;;23.80;41.50;;;;;;5070488;28;20223;-63
2022/11/25 06:57:11;;;;;;;1.15;0.40;;;23.80;41.50;;;;;;5074077;28;20191;-56
2022/11/25 06:59:43;;;;;;;0.47;0.40;;;23.80;41.50;;;;;;5074742;28;20199;-65
2022/11/25 07:02:16;;;;;;;1.77;0.40;;;23.80;41.50;;;;;;5074821;28;20190;-63
2022/11/25 07:04:49;;;;;;;1.95;0.52;;;23.80;41.50;;;;;;5074627;28;20218;-57
2022/11/25 07:07:20;;;;;;;1.13;0.50;;;23.80;41.50;;;;;;5073780;28;20230;-64
2022/11/25 07:09:51;;;;;;;1.02;0.40;;;23.80;41.60;;;;;;5074453;28;20203;-64
2022/11/25 07:12:22;;;;;;;1.45;0.40;;;23.80;41.60;;;;;;5074662;28;20190;-62
2022/11/25 07:14:55;;;;;;;0.55;0.38;;;23.70;41.60;;;;;;5075065;28;20222;-59
2022/11/25 07:17:26;;;;;;;1.33;0.57;;;23.70;42.20;;;;;;5074600;28;20203;-64
2022/11/25 07:19:57;;;;;;;0.50;0.30;;;23.70;41.60;;;;;;5074326;28;20669;-63
2022/11/25 07:22:27;;;;;;;0.98;0.43;;;23.70;41.70;;;;;;5074590;28;20206;-64
2022/11/25 07:24:58;;;;;;;0.68;0.40;;;23.70;41.70;;;;;;5074228;28;20221;-64
2022/11/25 07:27:29;;;;;;;0.88;0.30;;;23.70;41.70;;;;;;5074249;28;20720;-59
2022/11/25 07:30:01;;;;;;;0.80;0.38;;;23.70;42.30;;;;;;5074199;28;20206;-56
2022/11/25 07:32:35;;;;;;;0.50;0.35;;;23.60;41.70;;;;;;5074435;28;20699;-62
2022/11/25 07:35:07;;;;;;;1.00;0.50;;;23.60;41.70;;;;;;5074127;28;20554;-60
2022/11/25 07:37:37;;;;;;;0.30;0.30;;;23.60;41.80;;;;;;5073587;28;20202;-63
2022/11/25 07:40:09;;;;;;;0.63;0.28;;;23.50;41.80;;;;;;5073799;28;20559;-62
2022/11/25 07:42:40;;;;;;;1.13;0.60;;;23.50;41.80;;;;;;5072794;28;20194;-60
2022/11/25 07:45:13;;;;;;;0.85;0.40;;;23.50;41.90;;;;;;5073311;28;20217;-59
2022/11/25 07:47:44;;;;;;;0.70;0.47;;;23.50;41.90;;;;;;5073105;28;20234;-63
2022/11/25 07:50:17;;;;;;;0.77;0.30;;;23.50;42.00;;;;;;5073970;28;20662;-56
2022/11/25 07:52:48;;;;;;;1.05;0.43;;;23.40;42.00;;;;;;5071862;28;20256;-56
2022/11/25 07:55:22;;;;;;;0.55;0.43;;;23.40;42.00;;;;;;5073815;28;20203;-60
2022/11/25 07:57:53;;;;;;;0.57;0.50;;;23.40;42.00;;;;;;5073727;28;20209;-55
2022/11/25 08:00:26;;;;;;;1.17;0.40;;;23.40;42.10;;;;;;5072890;28;20213;-54
2022/11/25 08:02:56;;;;;;;0.40;0.30;;;23.40;42.10;;;;;;5073061;28;20219;-54
2022/11/25 08:05:27;;;;;;;0.50;0.40;;;23.30;42.10;;;;;;5073577;28;20552;-55
2022/11/25 08:07:58;;;;;;;0.85;0.30;;;23.30;42.10;;;;;;5072960;28;20226;-57
2022/11/25 08:10:28;;;;;;;0.60;0.30;;;23.30;42.20;;;;;;5073425;28;20191;-55
2022/11/25 08:12:59;;;;;;;0.73;0.50;;;23.30;42.20;;;;;;5072589;28;20213;-53
2022/11/25 08:15:39;;;;;;;0.80;0.40;;;23.30;42.20;;;;;;5072842;28;20199;-55
2022/11/25 08:18:10;;;;;;;0.90;0.43;;;23.20;42.20;;;;;;5072861;28;20204;-58
2022/11/25 08:20:40;;;;;;;1.65;0.60;;;23.20;42.20;;;;;;5072602;28;20221;-50
2022/11/25 08:23:12;;;;;;;1.08;0.50;;;23.10;42.80;;;;;;5072633;28;20561;-56
2022/11/25 08:25:43;;;;;;;1.05;0.50;;;23.10;42.30;;;;;;5072678;28;20222;-57
2022/11/25 08:28:14;;;;;;;0.57;0.38;;;23.10;42.30;;;;;;5073017;28;20223;-53
2022/11/25 08:30:50;;;;;;;1.63;0.40;;;23.10;42.40;;;;;;5072636;28;20282;-55
2022/11/25 08:33:21;;;;;;;1.90;0.50;;;23.10;42.50;;;;;;5073130;28;20217;-60
2022/11/25 08:35:56;;;;;;;1.00;0.40;;;23.00;42.50;;;;;;5072820;28;20224;-60
2022/11/25 08:38:27;;;;;;;1.30;0.52;;;23.00;42.60;;;;;;5072630;28;20190;-60
2022/11/25 08:40:59;;;;;;;2.75;0.90;;;23.00;42.60;;;;;;5072766;28;20202;-62
2022/11/25 08:43:30;;;;;;;2.08;0.50;;;23.00;42.70;;;;;;5072424;28;20226;-60
2022/11/25 08:46:02;;;;;;;1.00;0.43;;;22.90;42.60;;;;;;5071785;28;20198;-54
2022/11/25 08:48:34;;;;;;;1.38;0.50;;;22.90;42.60;;;;;;5066438;28;20223;-61
2022/11/25 08:51:08;;;;;;;1.27;0.68;;;22.90;42.60;;;;;;5072225;28;20203;-61
2022/11/25 08:53:40;;;;;;;0.70;0.50;;;22.90;42.70;;;;;;5063118;28;20718;-61
2022/11/25 08:56:11;;;;;;;1.42;0.50;;;22.80;42.70;;;;;;5052163;28;20207;-58
2022/11/25 08:58:42;;;;;;;0.73;0.50;;;22.80;42.80;;;;;;5069598;28;20191;-60
2022/11/25 09:01:16;;;;;;;2.00;0.70;;;22.70;42.70;;;;;;5072445;28;20210;-59
2022/11/25 09:03:51;;;;;;;2.28;0.82;;;22.70;42.80;;;;;;5071837;28;20765;-58
2022/11/25 09:06:22;;;;;;;1.05;0.55;;;22.70;42.80;;;;;;5059098;28;20214;-62
2022/11/25 09:08:55;;;;;;;1.75;0.65;;;22.70;42.90;;;;;;5069895;28;20202;-55
2022/11/25 09:11:27;;;;;;;0.65;0.60;;;22.60;43.00;;;;;;5071388;28;20194;-57
2022/11/25 09:13:57;;;;;;;1.50;0.60;;;22.60;43.00;;;;;;5091027;28;20218;-59
2022/11/25 09:16:30;;;;;;;1.50;0.65;;;22.60;43.00;;;;;;5091659;28;20252;-61
2022/11/25 09:19:01;;;;;;;1.58;0.65;;;22.60;43.00;;;;;;5091028;28;20200;-61
2022/11/25 09:21:31;;;;;;;1.25;0.70;;;22.50;43.00;;;;;;5091983;28;20204;-61
2022/11/25 09:24:02;;;;;;;1.75;0.65;;;22.50;43.00;;;;;;5090991;28;20210;-60
2022/11/25 09:26:34;;;;;;;1.25;0.70;;;22.50;43.10;;;;;;5091435;28;20198;-57
2022/11/25 09:29:05;;;;;;;1.33;0.70;;;22.40;43.00;;;;;;5088936;28;20194;-61
2022/11/25 09:31:37;;;;;;;1.75;0.85;;;22.40;43.10;;;;;;5071599;28;20199;-60
2022/11/25 09:34:08;;;;;;;1.33;0.55;;;22.40;43.20;;;;;;5071515;28;20214;-59
2022/11/25 09:36:39;;;;;;;0.95;0.70;;;22.30;43.10;;;;;;5070705;28;20194;-59
2022/11/25 09:39:10;;;;;;;1.65;0.75;;;22.30;43.20;;;;;;5069998;28;20195;-60
2022/11/25 09:47:54;;;;;;;2.72;0.93;;;22.20;43.20;;;;;;5065909;28;20508;-58
2022/11/25 09:50:34;;;;;;;2.38;0.90;;;22.20;43.30;;;;;;5075405;28;20191;-56
2022/11/25 09:53:13;;;;;;;1.33;0.55;;;22.10;43.20;;;;;;5068691;28;20211;-57
2022/11/25 09:55:52;;;;;;;0.98;0.52;;;22.10;43.20;;;;;;5070291;28;20194;-54
2022/11/25 09:58:31;;;;;;;1.15;0.70;;;22.10;43.30;;;;;;5069376;28;20650;-58
2022/11/25 10:01:05;;;;;;;1.83;0.90;;;22.10;43.30;;;;;;5070881;28;20203;-58
2022/11/25 10:03:42;;;;;;;1.55;0.65;;;22.00;43.30;;;;;;5070574;28;20211;-55
2022/11/25 10:06:19;;;;;;;1.65;0.80;;;22.00;43.40;;;;;;5070684;28;20194;-48
2022/11/25 10:08:54;;;;;;;2.65;0.60;;;22.00;43.40;;;;;;5070852;28;20245;-48
2022/11/25 10:11:44;;;;;;;1.77;0.70;;;22.00;43.40;;;;;;5070114;28;20194;-47
2022/11/25 10:14:23;;;;;;;2.15;0.80;;;21.90;43.40;;;;;;5071079;28;20210;-48
2022/11/25 10:16:58;;;;;;;1.50;0.75;;;21.90;43.40;;;;;;5070599;28;20213;-59
2022/11/25 10:19:40;;;;;;;1.60;0.77;;;21.90;43.40;;;;;;5090704;28;20554;-58
2022/11/25 10:22:24;;;;;;;1.83;0.60;;;21.80;43.40;;;;;;5090114;28;20194;-60
2022/11/25 10:24:59;;;;;;;2.80;0.90;;;21.80;43.50;;;;;;5091144;28;20218;-49
2022/11/25 10:27:40;;;;;;;1.63;0.80;;;21.80;43.40;;;;;;5089746;28;20587;-58
2022/11/25 10:30:18;;;;;;;2.22;0.95;;;21.80;43.50;;;;;;5083550;28;20572;-56
2022/11/25 10:32:54;;;;;;;2.40;1.00;;;21.80;43.50;;;;;;5077478;28;20197;-57
2022/11/25 10:35:33;;;;;;;2.33;1.13;;;21.80;43.50;;;;;;5076979;28;20198;-58
2022/11/25 10:38:07;;;;;;;1.48;0.93;;;21.70;43.50;;;;;;5077090;28;20679;-55
2022/11/25 10:40:37;;;;;;;2.15;1.10;;;21.70;43.50;;;;;;5077259;28;20191;-61
2022/11/25 10:43:14;;;;;;;1.80;0.90;;;21.70;43.50;;;;;;5077102;28;20205;-58
2022/11/25 10:45:52;;;;;;;1.35;0.55;;;21.60;43.50;;;;;;5097305;28;20198;-54
2022/11/25 10:48:35;;;;;;;1.40;0.60;;;21.60;43.50;;;;;;5086948;28;20233;-55
2022/11/25 10:51:19;;;;;;;1.33;0.80;;;21.60;43.50;;;;;;5076590;28;20202;-60
2022/11/25 10:54:18;;;;;;;1.13;0.60;;;21.60;43.50;;;;;;5089561;28;20217;-57
2022/11/25 10:56:52;;;;;;;0.95;0.68;;;21.60;43.60;;;;;;5096408;28;20276;-53
2022/11/25 10:59:27;;;;;;;1.67;0.95;;;21.50;44.10;;;;;;5092833;28;20198;-59
2022/11/25 11:02:20;;;;;;;1.20;0.80;;;21.50;44.20;;;;;;5077185;28;20191;-57
2022/11/25 11:05:00;;;;;;;3.08;1.10;;;21.50;43.60;;;;;;5077398;28;20214;-60
2022/11/25 11:07:34;;;;;;;1.42;0.70;;;21.40;43.50;;;;;;5077384;28;20233;-56
2022/11/25 11:10:19;;;;;;;1.80;0.80;;;21.40;43.50;;;;;;5077493;28;20541;-55
2022/11/25 11:13:01;;;;;;;2.13;0.70;;;21.40;43.60;;;;;;5077365;28;20201;-61
2022/11/25 11:15:33;;;;;;;1.23;0.80;;;21.40;43.60;;;;;;5077378;28;20658;-60
2022/11/25 11:18:23;;;;;;;0.82;0.60;;;21.40;43.60;;;;;;5077691;28;20572;-58
2022/11/25 11:20:55;;;;;;;1.35;0.63;;;21.30;43.60;;;;;;5076980;28;20199;-59
2022/11/25 11:23:28;;;;;;;1.55;0.70;;;21.30;43.70;;;;;;5076970;28;20260;-60
2022/11/25 11:26:01;;;;;;;2.00;0.80;;;21.30;43.70;;;;;;5077396;28;20574;-59
2022/11/25 11:28:40;;;;;;;1.63;0.80;;;21.30;43.70;;;;;;5077130;28;20245;-49
2022/11/25 11:31:19;;;;;;;1.40;0.93;;;21.20;43.70;;;;;;5077217;28;20206;-58
2022/11/25 11:33:59;;;;;;;2.55;0.80;;;21.20;43.70;;;;;;5077265;28;20218;-62
2022/11/25 11:36:46;;;;;;;1.25;0.70;;;21.20;43.80;;;;;;5077306;28;20666;-60
2022/11/25 11:39:49;;;;;;;1.88;1.08;;;21.20;43.70;;;;;;5077331;28;20199;-60
2022/11/25 11:42:26;;;;;;;3.05;0.90;;;21.10;43.70;;;;;;5073478;28;20207;-61
2022/11/25 11:45:13;;;;;;;1.42;0.80;;;21.10;43.60;;;;;;5073523;28;20210;-61
2022/11/25 11:47:56;;;;;;;1.65;0.60;;;21.10;43.70;;;;;;5073474;28;20214;-61
2022/11/25 11:50:33;;;;;;;1.25;0.82;;;21.10;43.70;;;;;;5073290;28;20187;-60
2022/11/25 11:53:11;;;;;;;1.88;0.82;;;21.10;43.80;;;;;;5073698;28;20214;-55
2022/11/25 11:55:58;;;;;;;1.35;0.70;;;21.00;43.80;;;;;;5073712;28;20199;-58
2022/11/25 11:58:45;;;;;;;1.70;0.68;;;21.00;43.80;;;;;;5073938;28;20199;-55
2022/11/25 12:01:32;;;;;;;1.60;0.80;;;21.00;43.80;;;;;;5073649;28;20640;-58
2022/11/25 12:04:09;;;;;;;2.35;0.75;;;20.90;43.70;;;;;;5074045;28;20713;-59
2022/11/25 12:06:43;;;;;;;1.40;0.63;;;20.90;44.40;;;;;;5073201;28;20673;-57
2022/11/25 12:09:19;;;;;;;1.05;0.73;;;20.90;43.80;;;;;;5072903;28;20241;-61
2022/11/25 12:11:58;;;;;;;2.75;1.02;;;20.90;43.80;;;;;;5073713;28;20198;-59
2022/11/25 12:14:36;;;;;;;1.83;0.63;;;20.90;43.80;;;;;;5073166;28;20733;-59
2022/11/25 12:17:16;;;;;;;2.00;0.73;;;20.80;43.80;;;;;;5073177;28;20233;-60
2022/11/25 12:19:55;;;;;;;1.15;0.80;;;20.80;43.80;;;;;;5072739;28;20195;-59
2022/11/25 12:22:31;;;;;;;1.65;0.73;;;20.80;43.80;;;;;;5073018;28;20201;-58
2022/11/25 12:25:08;;;;;;;2.17;0.75;;;20.80;43.80;;;;;;5073240;28;20198;-59
2022/11/25 12:27:46;;;;;;;1.02;0.70;;;20.70;43.80;;;;;;5073388;28;20209;-59
2022/11/25 12:30:19;;;;;;;1.80;0.70;;;20.70;43.80;;;;;;5072734;28;20205;-60
2022/11/25 12:33:07;;;;;;;1.83;0.80;;;20.70;43.80;;;;;;5072920;28;20202;-61
2022/11/25 12:35:47;;;;;;;0.82;0.60;;;20.70;43.80;;;;;;5072784;28;20191;-60
2022/11/25 12:38:27;;;;;;;1.25;0.70;;;20.70;43.80;;;;;;5072169;28;20194;-58
2022/11/25 12:41:04;;;;;;;2.03;1.00;;;20.70;43.80;;;;;;5072517;28;20198;-59
2022/11/25 12:43:44;;;;;;;1.90;0.80;;;20.60;43.70;;;;;;5072474;28;20716;-56
2022/11/25 12:46:25;;;;;;;2.47;0.63;;;20.60;43.80;;;;;;5072960;28;20210;-58
2022/11/25 12:48:57;;;;;;;1.55;0.70;;;20.60;43.80;;;;;;5072719;28;20230;-57
2022/11/25 12:51:45;;;;;;;1.25;0.60;;;20.60;43.80;;;;;;5072339;28;20195;-59
2022/11/25 12:54:36;;;;;;;1.48;0.70;;;20.50;43.80;;;;;;5070752;28;20226;-60
2022/11/25 12:57:39;;;;;;;1.05;0.55;;;20.50;43.80;;;;;;5070059;28;20191;-59
2022/11/25 13:00:23;;;;;;;1.27;0.70;;;20.50;43.80;;;;;;5059011;28;20198;-55
2022/11/25 13:03:24;;;;;;;0.90;0.60;;;20.50;43.80;;;;;;5072240;28;20226;-55
2022/11/25 13:06:18;;;;;;;1.67;0.82;;;20.50;43.80;;;;;;5071974;28;20241;-59
2022/11/25 13:08:59;;;;;;;0.90;0.60;;;20.50;43.90;;;;;;5066038;28;20222;-59
2022/11/25 13:11:52;;;;;;;1.63;0.70;;;20.50;43.80;;;;;;5072620;28;20201;-60
2022/11/25 13:14:29;;;;;;;0.80;0.45;;;20.50;43.80;;;;;;5072050;28;20347;-58
2022/11/25 13:17:02;;;;;;;1.10;0.60;;;20.40;43.80;;;;;;5072383;28;20206;-59
2022/11/25 13:19:35;;;;;;;1.48;0.60;;;20.40;43.80;;;;;;5072522;28;20206;-50
2022/11/25 13:22:07;;;;;;;1.13;0.57;;;20.40;43.80;;;;;;5072251;28;20263;-59
2022/11/25 13:24:42;;;;;;;0.82;0.50;;;20.40;43.80;;;;;;5071929;28;20248;-57
2022/11/25 13:27:34;;;;;;;1.10;0.77;;;20.30;43.80;;;;;;5072339;28;20202;-59
2022/11/25 13:30:08;;;;;;;0.60;0.47;;;20.30;43.80;;;;;;5072149;28;20235;-59
2022/11/25 13:32:43;;;;;;;1.08;0.60;;;20.30;43.80;;;;;;5071743;28;20194;-59